createdAt,value
2019-03-02T00:02:00.096Z,28.12
2019-03-02T00:04:27.406Z,25.10
2019-03-02T00:06:54.707Z,26.42
2019-03-02T00:09:22.025Z,27.67
2019-03-02T00:11:49.332Z,24.75
2019-03-02T00:14:19.186Z,26.62
2019-03-02T00:16:45.589Z,25.88
2019-03-02T00:19:12.881Z,24.47
2019-03-02T00:21:40.178Z,25.68
2019-03-02T00:24:07.508Z,24.75
2019-03-02T00:26:34.784Z,25.45
2019-03-02T00:29:02.080Z,22.90
2019-03-02T00:31:29.859Z,33.30
2019-03-02T00:33:58.385Z,23.55
2019-03-02T00:36:25.691Z,25.15
2019-03-02T00:38:53.372Z,24.75
2019-03-02T00:41:20.688Z,23.32
2019-03-02T00:43:48.006Z,23.52
2019-03-02T00:46:15.305Z,22.48
2019-03-02T00:48:43.659Z,24.65
2019-03-02T00:51:12.092Z,28.75
2019-03-02T00:53:39.386Z,27.98
2019-03-02T00:56:07.893Z,31.12
2019-03-02T00:58:35.651Z,31.02
2019-03-02T01:01:02.938Z,30.40
2019-03-02T01:03:30.233Z,27.82
2019-03-02T01:05:57.573Z,23.52
2019-03-02T01:08:24.860Z,24.95
2019-03-02T01:10:54.850Z,24.30
2019-03-02T01:13:23.085Z,27.00
2019-03-02T01:15:50.087Z,26.52
2019-03-02T01:18:17.400Z,23.95
2019-03-02T01:20:44.727Z,22.35
2019-03-02T01:23:12.031Z,24.02
2019-03-02T01:25:39.335Z,24.05
2019-03-02T01:28:09.629Z,22.22
2019-03-02T01:30:35.608Z,21.20
2019-03-02T01:33:02.896Z,23.02
2019-03-02T01:35:30.211Z,23.77
2019-03-02T01:37:57.507Z,23.50
2019-03-02T01:40:24.822Z,23.85
2019-03-02T01:42:52.115Z,23.15
2019-03-02T01:45:19.423Z,23.30
2019-03-02T01:47:50.475Z,24.18
2019-03-02T01:50:16.350Z,21.77
2019-03-02T01:52:43.666Z,23.75
2019-03-02T01:55:11.234Z,24.07
2019-03-02T01:57:38.564Z,23.47
2019-03-02T02:00:13.777Z,21.15
2019-03-02T02:02:41.798Z,23.02
2019-03-02T02:05:09.097Z,22.15
2019-03-02T02:07:36.399Z,22.70
2019-03-02T02:10:05.354Z,23.80
2019-03-02T02:12:32.642Z,23.60
2019-03-02T02:14:59.934Z,23.05
2019-03-02T02:17:27.264Z,26.73
2019-03-02T02:19:54.555Z,22.75
2019-03-02T02:22:21.852Z,22.52
2019-03-02T02:24:49.168Z,25.35
2019-03-02T02:27:18.803Z,23.50
2019-03-02T02:29:45.409Z,22.10
2019-03-02T02:32:12.726Z,23.40
2019-03-02T02:34:40.017Z,23.02
2019-03-02T02:37:07.331Z,23.27
2019-03-02T02:39:35.221Z,25.43
2019-03-02T02:42:05.160Z,25.68
2019-03-02T02:44:33.244Z,22.90
2019-03-02T02:47:00.541Z,20.02
2019-03-02T02:49:28.235Z,21.07
2019-03-02T02:51:55.559Z,23.75
2019-03-02T02:54:24.475Z,24.43
2019-03-02T02:56:54.300Z,23.83
2019-03-02T02:59:20.817Z,25.85
2019-03-02T03:01:48.128Z,23.15
2019-03-02T03:04:15.435Z,33.00
2019-03-02T03:06:42.763Z,24.85
2019-03-02T03:09:11.729Z,24.30
2019-03-02T03:11:43.776Z,24.50
2019-03-02T03:14:07.956Z,24.90
2019-03-02T03:16:35.279Z,26.05
2019-03-02T03:19:02.577Z,25.02
2019-03-02T03:21:29.892Z,31.25
2019-03-02T03:24:03.055Z,27.82
2019-03-02T03:26:26.158Z,31.23
2019-03-02T03:28:53.453Z,25.85
2019-03-02T03:31:23.449Z,23.62
2019-03-02T03:33:49.744Z,25.43
2019-03-02T03:36:17.043Z,25.32
2019-03-02T03:38:44.359Z,24.57
2019-03-02T03:41:11.650Z,25.85
2019-03-02T03:43:42.533Z,27.85
2019-03-02T03:46:07.916Z,27.15
2019-03-02T03:48:35.201Z,24.90
2019-03-02T03:51:02.527Z,23.83
2019-03-02T03:53:31.829Z,27.20
2019-03-02T03:56:03.375Z,26.23
2019-03-02T03:58:27.711Z,25.25
2019-03-02T04:00:55.027Z,26.50
2019-03-02T04:03:22.367Z,25.10
2019-03-02T04:05:49.656Z,22.58
2019-03-02T04:08:16.964Z,23.05
2019-03-02T04:10:44.273Z,24.37
2019-03-02T04:13:11.579Z,26.20
2019-03-02T04:15:41.537Z,23.67
2019-03-02T04:18:25.695Z,26.55
2019-03-02T04:20:52.981Z,23.87
2019-03-02T04:23:22.091Z,27.13
2019-03-02T04:25:52.171Z,28.57
2019-03-02T04:28:18.222Z,32.33
2019-03-02T04:30:45.510Z,29.00
2019-03-02T04:33:12.841Z,31.55
2019-03-02T04:35:40.134Z,29.77
2019-03-02T04:38:07.440Z,29.50
2019-03-02T04:40:34.749Z,26.07
2019-03-02T04:43:02.041Z,29.12
2019-03-02T04:45:29.342Z,29.05
2019-03-02T04:48:00.022Z,25.57
2019-03-02T04:50:27.093Z,25.80
2019-03-02T04:52:54.567Z,33.85
2019-03-02T04:55:21.871Z,34.73
2019-03-02T04:57:49.162Z,36.42
2019-03-02T05:00:16.855Z,38.85
2019-03-02T05:02:44.152Z,37.17
2019-03-02T05:05:11.464Z,41.30
2019-03-02T05:07:38.776Z,40.30
2019-03-02T05:10:07.466Z,39.03
2019-03-02T05:12:34.770Z,34.05
2019-03-02T05:15:02.063Z,42.27
2019-03-02T05:17:29.389Z,39.98
2019-03-02T05:19:56.677Z,42.33
2019-03-02T05:22:23.983Z,42.70
2019-03-02T05:24:51.302Z,41.00
2019-03-02T05:27:18.691Z,40.52
2019-03-02T05:29:45.981Z,40.83
2019-03-02T05:32:16.080Z,41.73
2019-03-02T05:34:42.229Z,39.20
2019-03-02T05:37:09.521Z,42.70
2019-03-02T05:39:36.837Z,40.15
2019-03-02T05:42:04.139Z,37.10
2019-03-02T05:44:31.458Z,28.35
2019-03-02T05:47:01.434Z,33.60
2019-03-02T05:49:27.697Z,40.67
2019-03-02T05:51:55.009Z,40.65
2019-03-02T05:54:22.304Z,40.40
2019-03-02T05:56:49.593Z,39.95
2019-03-02T05:59:16.908Z,41.85
2019-03-02T06:01:44.237Z,40.15
2019-03-02T06:04:11.548Z,41.90
2019-03-02T06:06:38.838Z,42.53
2019-03-02T06:09:08.385Z,41.95
2019-03-02T06:11:39.404Z,43.28
2019-03-02T06:14:05.696Z,42.80
2019-03-02T06:16:33.007Z,43.40
2019-03-02T06:19:00.320Z,49.58
2019-03-02T06:21:27.616Z,48.52
2019-03-02T06:23:54.924Z,49.93
2019-03-02T06:26:22.244Z,46.77
2019-03-02T06:28:49.534Z,41.75
2019-03-02T06:31:19.099Z,43.98
2019-03-02T06:33:45.819Z,42.80
2019-03-02T06:36:13.114Z,40.10
2019-03-02T06:38:40.425Z,30.57
2019-03-02T06:41:07.720Z,32.35
2019-03-02T06:43:35.042Z,33.38
2019-03-02T06:46:02.347Z,30.25
2019-03-02T06:48:29.673Z,26.80
2019-03-02T06:50:56.957Z,29.57
2019-03-02T06:53:24.251Z,23.83
2019-03-02T06:55:51.569Z,23.42
2019-03-02T06:58:18.857Z,27.27
2019-03-02T07:00:48.883Z,28.10
2019-03-02T07:03:15.115Z,23.07
2019-03-02T07:05:42.425Z,28.05
2019-03-02T07:08:09.728Z,23.95
2019-03-02T07:10:37.043Z,28.47
2019-03-02T07:13:05.978Z,28.20
2019-03-02T07:15:33.266Z,24.80
2019-03-02T07:18:06.578Z,27.42
2019-03-02T07:20:38.915Z,29.00
2019-03-02T07:23:06.218Z,23.22
2019-03-02T07:25:36.866Z,23.18
2019-03-02T07:28:05.885Z,25.90
2019-03-02T07:30:31.428Z,23.92
2019-03-02T07:32:58.726Z,18.67
2019-03-02T07:35:26.038Z,19.10
2019-03-02T07:37:53.371Z,17.42
2019-03-02T07:40:20.676Z,20.12
2019-03-02T07:42:47.977Z,19.65
2019-03-02T07:45:16.923Z,18.20
2019-03-02T07:47:44.209Z,19.87
2019-03-02T07:50:11.548Z,20.70
2019-03-02T07:52:38.843Z,20.15
2019-03-02T07:55:07.438Z,19.02
2019-03-02T07:57:34.734Z,25.32
2019-03-02T08:00:05.107Z,24.65
2019-03-02T08:02:31.009Z,20.23
2019-03-02T08:05:00.040Z,24.37
2019-03-02T08:07:27.269Z,24.50
2019-03-02T08:09:54.580Z,26.45
2019-03-02T08:12:24.809Z,27.07
2019-03-02T08:14:50.836Z,26.68
2019-03-02T08:17:18.123Z,24.98
2019-03-02T08:19:48.510Z,27.48
2019-03-02T08:22:14.379Z,26.73
2019-03-02T08:24:43.863Z,27.40
2019-03-02T08:27:10.642Z,29.30
2019-03-02T08:29:37.945Z,27.42
2019-03-02T08:32:05.262Z,28.87
2019-03-02T08:34:32.554Z,28.38
2019-03-02T08:36:59.845Z,27.25
2019-03-02T08:39:27.166Z,26.25
2019-03-02T08:41:54.457Z,17.87
2019-03-02T08:44:21.777Z,17.37
2019-03-02T08:46:49.082Z,22.65
2019-03-02T08:49:16.384Z,22.48
2019-03-02T08:51:43.710Z,25.55
2019-03-02T08:54:10.998Z,23.75
2019-03-02T08:56:38.290Z,24.77
2019-03-02T08:59:05.974Z,21.48
2019-03-02T09:01:33.269Z,17.98
2019-03-02T09:04:00.561Z,18.17
2019-03-02T09:06:30.824Z,22.32
2019-03-02T09:08:56.822Z,19.62
2019-03-02T09:11:24.152Z,17.17
2019-03-02T09:13:51.433Z,19.65
2019-03-02T09:16:18.739Z,18.17
2019-03-02T09:18:46.076Z,20.80
2019-03-02T09:21:13.646Z,20.62
2019-03-02T09:23:40.958Z,20.60
2019-03-02T09:26:08.294Z,20.17
2019-03-02T09:28:35.590Z,24.37
2019-03-02T09:31:03.356Z,27.02
2019-03-02T09:33:30.715Z,26.50
2019-03-02T09:35:58.037Z,24.15
2019-03-02T09:38:25.334Z,24.65
2019-03-02T09:40:52.658Z,20.52
2019-03-02T09:43:19.978Z,21.95
2019-03-02T09:45:48.032Z,20.60
2019-03-02T09:48:16.406Z,21.50
2019-03-02T09:50:43.757Z,21.15
2019-03-02T09:53:11.059Z,18.60
2019-03-02T09:55:38.354Z,19.35
2019-03-02T09:58:06.384Z,18.45
2019-03-02T10:00:35.868Z,19.00
2019-03-02T10:03:02.752Z,18.73
2019-03-02T10:05:30.025Z,18.10
2019-03-02T10:07:57.318Z,17.87
2019-03-02T10:10:28.966Z,17.25
2019-03-02T10:12:53.559Z,19.60
2019-03-02T10:15:22.049Z,18.23
2019-03-02T10:17:49.340Z,16.77
2019-03-02T10:20:16.634Z,18.23
2019-03-02T10:22:43.953Z,19.42
2019-03-02T10:25:12.117Z,16.85
2019-03-02T10:27:39.401Z,16.27
2019-03-02T10:30:14.161Z,17.80
2019-03-02T10:32:41.474Z,18.40
2019-03-02T10:35:09.061Z,18.10
2019-03-02T10:37:39.549Z,18.00
2019-03-02T10:40:08.871Z,16.90
2019-03-02T10:42:37.034Z,17.12
2019-03-02T10:45:06.463Z,17.30
2019-03-02T10:47:33.792Z,18.42
2019-03-02T10:50:01.081Z,19.60
2019-03-02T10:52:28.410Z,17.77
2019-03-02T10:54:55.822Z,16.73
2019-03-02T10:57:23.105Z,17.65
2019-03-02T10:59:51.697Z,17.52
2019-03-02T11:02:20.040Z,18.75
2019-03-02T11:04:49.922Z,17.52
2019-03-02T11:07:24.586Z,16.02
2019-03-02T11:09:56.516Z,19.62
2019-03-02T11:12:25.455Z,17.05
2019-03-02T11:14:54.386Z,18.30
2019-03-02T11:17:32.260Z,18.50
2019-03-02T11:20:03.973Z,19.42
2019-03-02T11:22:44.705Z,21.12
2019-03-02T11:25:13.631Z,18.52
2019-03-02T11:27:57.694Z,17.70
2019-03-02T11:30:29.595Z,20.45
2019-03-02T11:33:01.520Z,18.07
2019-03-02T11:35:42.269Z,18.60
2019-03-02T11:38:11.225Z,17.52
2019-03-02T11:40:40.168Z,18.00
2019-03-02T11:43:23.894Z,18.65
2019-03-02T11:45:58.395Z,18.23
2019-03-02T11:48:30.297Z,17.95
2019-03-02T11:50:59.225Z,19.23
2019-03-02T11:53:28.182Z,18.60
2019-03-02T11:56:06.668Z,19.73
2019-03-02T11:58:42.369Z,18.82
2019-03-02T12:01:20.284Z,20.00
2019-03-02T12:03:54.581Z,18.40
2019-03-02T12:06:24.801Z,21.65
2019-03-02T12:09:03.097Z,19.23
2019-03-02T12:11:49.073Z,18.62
2019-03-02T12:14:21.706Z,18.52
2019-03-02T12:16:53.097Z,21.07
2019-03-02T12:19:38.384Z,19.42
2019-03-02T12:22:16.449Z,22.62
2019-03-02T12:25:01.493Z,19.62
2019-03-02T12:27:36.243Z,20.62
2019-03-02T12:30:26.084Z,20.20
2019-03-02T12:32:55.202Z,20.72
2019-03-02T12:35:34.376Z,23.55
2019-03-02T12:38:07.120Z,21.85
2019-03-02T12:40:40.185Z,20.00
2019-03-02T12:43:09.850Z,19.00
2019-03-02T12:45:41.337Z,20.75
2019-03-02T12:48:16.180Z,18.85
2019-03-02T12:50:45.138Z,20.65
2019-03-02T12:53:16.056Z,19.92
2019-03-02T12:55:53.138Z,20.88
2019-03-02T12:58:27.019Z,20.48
2019-03-02T13:00:55.987Z,20.55
2019-03-02T13:03:27.274Z,21.10
2019-03-02T13:06:04.511Z,20.37
2019-03-02T13:08:42.270Z,20.57
2019-03-02T13:11:11.218Z,20.08
2019-03-02T13:13:56.666Z,22.50
2019-03-02T13:16:37.741Z,19.90
2019-03-02T13:19:09.646Z,21.90
2019-03-02T13:21:41.489Z,21.20
2019-03-02T13:24:26.745Z,19.20
2019-03-02T13:26:58.615Z,20.95
2019-03-02T13:29:33.514Z,21.57
2019-03-02T13:32:05.374Z,25.27
2019-03-02T13:34:37.021Z,23.95
2019-03-02T13:37:11.643Z,20.68
2019-03-02T13:39:46.994Z,23.02
2019-03-02T13:42:31.847Z,23.07
2019-03-02T13:45:00.778Z,20.72
2019-03-02T13:47:44.896Z,22.30
2019-03-02T13:50:21.076Z,22.30
2019-03-02T13:53:06.417Z,23.27
2019-03-02T13:55:49.404Z,22.93
2019-03-02T13:58:23.489Z,21.30
2019-03-02T14:01:01.452Z,21.42
2019-03-02T14:03:39.297Z,26.20
2019-03-02T14:06:14.194Z,21.40
2019-03-02T14:08:59.257Z,22.95
2019-03-02T14:11:32.530Z,24.20
2019-03-02T14:14:10.701Z,23.75
2019-03-02T14:16:42.605Z,24.80
2019-03-02T14:19:17.291Z,22.73
2019-03-02T14:21:49.151Z,29.20
2019-03-02T14:24:18.088Z,26.10
2019-03-02T14:26:47.042Z,22.65
2019-03-02T14:29:24.731Z,26.07
2019-03-02T14:31:53.674Z,23.95
2019-03-02T14:34:34.493Z,23.38
2019-03-02T14:37:07.894Z,25.50
2019-03-02T14:39:42.646Z,23.20
2019-03-02T14:42:17.394Z,24.00
2019-03-02T14:44:49.297Z,24.35
2019-03-02T14:47:36.590Z,25.37
2019-03-02T14:50:24.494Z,25.25
2019-03-02T14:53:11.086Z,24.20
2019-03-02T14:55:45.586Z,20.77
2019-03-02T14:58:14.555Z,25.40
2019-03-02T15:00:58.921Z,25.55
2019-03-02T15:03:35.034Z,23.50
2019-03-02T15:06:09.121Z,23.30
2019-03-02T15:08:42.813Z,29.27
2019-03-02T15:11:13.398Z,25.97
2019-03-02T15:13:58.583Z,23.87
2019-03-02T15:16:36.770Z,23.95
2019-03-02T15:19:06.503Z,23.95
2019-03-02T15:21:40.433Z,24.82
2019-03-02T15:24:11.323Z,22.77
2019-03-02T15:26:43.162Z,24.30
2019-03-02T15:29:26.733Z,25.12
2019-03-02T15:31:55.683Z,23.55
2019-03-02T15:34:24.624Z,25.43
2019-03-02T15:36:59.480Z,23.80
2019-03-02T15:39:28.410Z,23.95
2019-03-02T15:42:09.430Z,22.95
2019-03-02T15:44:54.672Z,26.85
2019-03-02T15:47:23.630Z,23.57
2019-03-02T15:50:08.742Z,24.85
2019-03-02T15:52:43.800Z,24.82
2019-03-02T15:55:11.342Z,22.65
2019-03-02T15:57:43.964Z,21.68
2019-03-02T16:00:17.220Z,25.30
2019-03-02T16:02:51.966Z,25.05
2019-03-02T16:05:23.808Z,26.60
2019-03-02T16:08:01.829Z,24.65
2019-03-02T16:10:40.197Z,28.23
2019-03-02T16:13:20.565Z,27.10
2019-03-02T16:15:50.414Z,24.80
2019-03-02T16:18:25.185Z,26.85
2019-03-02T16:20:54.114Z,24.05
2019-03-02T16:23:23.058Z,26.73
2019-03-02T16:25:52.002Z,24.67
2019-03-02T16:28:38.961Z,23.60
2019-03-02T16:31:22.290Z,23.67
2019-03-02T16:33:51.214Z,24.72
2019-03-02T16:36:40.286Z,25.55
2019-03-02T16:39:08.155Z,24.43
2019-03-02T16:41:53.514Z,24.25
2019-03-02T16:44:25.137Z,27.13
2019-03-02T16:46:54.096Z,25.43
2019-03-02T16:49:40.181Z,23.77
2019-03-02T16:52:17.342Z,20.97
2019-03-02T16:54:52.160Z,22.80
2019-03-02T16:57:30.333Z,23.00
2019-03-02T17:00:08.973Z,23.22
2019-03-02T17:02:46.044Z,24.18
2019-03-02T17:05:17.973Z,25.08
2019-03-02T17:07:46.894Z,23.92
2019-03-02T17:10:27.698Z,26.10
2019-03-02T17:12:58.836Z,24.23
2019-03-02T17:15:27.230Z,26.60
2019-03-02T17:18:12.335Z,24.15
2019-03-02T17:20:43.357Z,24.98
2019-03-02T17:23:23.955Z,28.15
2019-03-02T17:25:54.430Z,24.30
2019-03-02T17:28:23.384Z,26.27
2019-03-02T17:31:08.649Z,25.65
2019-03-02T17:33:40.069Z,27.42
2019-03-02T17:36:14.877Z,23.57
2019-03-02T17:39:00.139Z,27.10
2019-03-02T17:41:45.129Z,23.80
2019-03-02T17:44:14.053Z,23.98
2019-03-02T17:46:43.015Z,27.15
2019-03-02T17:49:17.727Z,26.20
2019-03-02T17:51:46.686Z,28.45
2019-03-02T17:54:27.289Z,26.30
2019-03-02T17:57:17.604Z,24.98
2019-03-02T17:59:47.399Z,23.87
2019-03-02T18:02:16.351Z,25.02
2019-03-02T18:04:45.306Z,25.80
2019-03-02T18:07:14.243Z,25.43
2019-03-02T18:10:01.041Z,25.60
2019-03-02T18:12:39.174Z,25.20
2019-03-02T18:15:26.176Z,24.18
2019-03-02T18:18:03.103Z,26.45
2019-03-02T18:20:30.497Z,24.50
2019-03-02T18:22:57.787Z,24.87
2019-03-02T18:25:25.086Z,25.60
2019-03-02T18:27:53.299Z,26.00
2019-03-02T18:30:21.361Z,23.42
2019-03-02T18:32:50.318Z,25.32
2019-03-02T18:35:17.698Z,24.27
2019-03-02T18:37:45.024Z,27.40
2019-03-02T18:40:12.792Z,27.02
2019-03-02T18:42:40.090Z,25.70
2019-03-02T18:45:08.791Z,24.63
2019-03-02T18:47:36.081Z,26.30
2019-03-02T18:50:14.711Z,27.27
2019-03-02T18:52:43.647Z,26.62
2019-03-02T18:55:10.942Z,26.60
2019-03-02T18:57:38.263Z,24.30
2019-03-02T19:00:07.265Z,27.02
2019-03-02T19:02:34.583Z,24.52
2019-03-02T19:05:01.876Z,27.67
2019-03-02T19:07:29.203Z,26.80
2019-03-02T19:09:56.489Z,27.70
2019-03-02T19:12:23.800Z,29.70
2019-03-02T19:14:53.819Z,27.98
2019-03-02T19:17:20.072Z,26.82
2019-03-02T19:19:47.370Z,29.32
2019-03-02T19:22:14.669Z,29.42
2019-03-02T19:24:41.990Z,28.98
2019-03-02T19:27:09.294Z,27.48
2019-03-02T19:29:36.605Z,27.82
2019-03-02T19:32:03.903Z,24.55
2019-03-02T19:34:31.239Z,24.02
2019-03-02T19:36:58.535Z,26.82
2019-03-02T19:39:25.919Z,26.60
2019-03-02T19:41:53.227Z,25.95
2019-03-02T19:44:20.529Z,25.65
2019-03-02T19:46:47.839Z,24.10
2019-03-02T19:49:15.140Z,25.75
2019-03-02T19:51:42.469Z,24.87
2019-03-02T19:54:09.757Z,24.07
2019-03-02T19:56:37.072Z,24.60
2019-03-02T19:59:04.360Z,25.45
2019-03-02T20:01:31.662Z,24.55
2019-03-02T20:03:58.973Z,22.67
2019-03-02T20:06:26.277Z,26.52
2019-03-02T20:08:53.564Z,23.12
2019-03-02T20:11:20.887Z,22.73
2019-03-02T20:13:48.176Z,24.15
2019-03-02T20:16:15.498Z,23.25
2019-03-02T20:18:42.819Z,23.90
2019-03-02T20:21:10.110Z,23.70
2019-03-02T20:23:37.578Z,21.93
2019-03-02T20:26:04.843Z,22.65
2019-03-02T20:28:32.134Z,22.00
2019-03-02T20:30:59.450Z,21.70
2019-03-02T20:33:26.740Z,22.17
2019-03-02T20:35:54.058Z,22.00
2019-03-02T20:38:21.354Z,23.27
2019-03-02T20:40:48.687Z,24.92
2019-03-02T20:43:15.984Z,22.17
2019-03-02T20:45:43.298Z,21.68
2019-03-02T20:48:10.601Z,21.95
2019-03-02T20:50:37.938Z,21.05
2019-03-02T20:53:05.222Z,24.23
2019-03-02T20:55:32.532Z,23.70
2019-03-02T20:57:59.859Z,22.75
2019-03-02T21:00:36.805Z,24.25
2019-03-02T21:03:04.122Z,21.65
2019-03-02T21:05:31.410Z,23.25
2019-03-02T21:07:58.712Z,23.00
2019-03-02T21:10:26.501Z,24.25
2019-03-02T21:12:53.794Z,21.20
2019-03-02T21:15:24.366Z,21.00
2019-03-02T21:17:51.720Z,20.50
2019-03-02T21:20:20.111Z,21.12
2019-03-02T21:22:47.397Z,18.35
2019-03-02T21:25:14.698Z,19.60
2019-03-02T21:27:42.010Z,18.65
2019-03-02T21:30:10.691Z,19.70
2019-03-02T21:32:38.018Z,17.60
2019-03-02T21:35:06.806Z,17.62
2019-03-02T21:37:34.106Z,19.35
2019-03-02T21:40:01.394Z,16.85
2019-03-02T21:42:28.723Z,17.12
2019-03-02T21:44:56.022Z,18.80
2019-03-02T21:47:23.319Z,16.48
2019-03-02T21:49:50.640Z,17.12
2019-03-02T21:52:18.322Z,15.68
2019-03-02T21:54:45.680Z,16.32
2019-03-02T21:57:13.007Z,17.42
2019-03-02T21:59:40.323Z,16.23
2019-03-02T22:02:07.627Z,15.03
2019-03-02T22:04:34.954Z,16.15
2019-03-02T22:07:02.275Z,16.07
2019-03-02T22:09:29.566Z,15.00
2019-03-02T22:11:56.897Z,14.50
2019-03-02T22:14:24.203Z,14.10
2019-03-02T22:16:51.503Z,15.58
2019-03-02T22:19:18.823Z,14.75
2019-03-02T22:21:46.109Z,15.55
2019-03-02T22:24:13.437Z,14.03
2019-03-02T22:26:40.907Z,15.20
2019-03-02T22:29:08.195Z,13.70
2019-03-02T22:31:35.520Z,12.90
2019-03-02T22:34:02.806Z,14.03
2019-03-02T22:36:30.096Z,11.73
2019-03-02T22:38:57.414Z,13.38
2019-03-02T22:41:24.712Z,12.25
2019-03-02T22:43:52.025Z,12.80
2019-03-02T22:46:19.317Z,11.80
2019-03-02T22:48:46.637Z,11.38
2019-03-02T22:51:13.931Z,10.20
2019-03-02T22:53:41.237Z,10.75
2019-03-02T22:56:08.560Z,9.60
2019-03-02T22:58:35.251Z,9.73
2019-03-02T23:01:22.185Z,6.95
2019-03-02T23:03:49.481Z,8.75
2019-03-02T23:06:16.795Z,7.58
2019-03-02T23:08:44.101Z,7.15
2019-03-02T23:11:11.391Z,6.78
2019-03-02T23:13:38.673Z,6.25
2019-03-02T23:16:05.982Z,7.12
2019-03-02T23:18:33.297Z,6.58
2019-03-02T23:21:00.580Z,6.65
2019-03-02T23:23:27.857Z,6.72
2019-03-02T23:25:55.160Z,7.37
2019-03-02T23:28:22.450Z,7.33
2019-03-02T23:30:49.764Z,6.45
2019-03-02T23:33:18.734Z,7.22
2019-03-02T23:35:46.024Z,7.55
2019-03-02T23:38:13.314Z,8.40
2019-03-02T23:40:40.627Z,6.78
2019-03-02T23:43:07.946Z,6.22
2019-03-02T23:45:35.228Z,7.22
2019-03-02T23:48:02.537Z,7.33
2019-03-02T23:50:29.846Z,7.72
2019-03-02T23:52:57.164Z,7.25
2019-03-02T23:55:24.444Z,7.95
2019-03-02T23:57:51.728Z,8.10
